Time;durP1;ratioP1;P1;durP2;ratioP2;P2;SDS_P1;SDS_P2;PMS_P1;PMS_P2;Temp;Humidity;BMP_temperature;BMP_pressure;BME280_temperature;BME280_humidity;BME280_pressure;Samples;Min_cycle;Max_cycle;Signal;HPM_P1;HPM_P2
2021/05/16 00:00:07;;;;;;;1.50;1.10;;;11.10;98.20;;;;;;5011839;28;20471;-80
2021/05/16 00:02:33;;;;;;;1.50;1.10;;;11.10;98.20;;;;;;5010990;28;20496;-81
2021/05/16 00:05:02;;;;;;;1.50;1.00;;;11.10;98.20;;;;;;5015069;28;20517;-80
2021/05/16 00:07:29;;;;;;;1.50;1.20;;;11.10;98.20;;;;;;5016654;28;20487;-83
2021/05/16 00:09:55;;;;;;;1.50;1.00;;;11.10;98.20;;;;;;5016872;28;20523;-81
2021/05/16 00:12:21;;;;;;;1.50;1.00;;;11.10;98.20;;;;;;5010837;28;20555;-81
2021/05/16 00:14:48;;;;;;;1.50;1.10;;;11.10;98.20;;;;;;5014701;28;20456;-81
2021/05/16 00:17:15;;;;;;;1.50;1.00;;;11.10;98.20;;;;;;5010013;28;20526;-81
2021/05/16 00:19:41;;;;;;;1.50;1.10;;;11.10;98.20;;;;;;5013872;28;20468;-80
2021/05/16 00:22:08;;;;;;;1.57;1.20;;;11.10;98.20;;;;;;5007558;28;20544;-81
2021/05/16 00:24:35;;;;;;;1.50;1.10;;;11.10;98.20;;;;;;5012069;28;20510;-80
2021/05/16 00:27:01;;;;;;;1.50;1.00;;;11.10;98.20;;;;;;5010839;28;20921;-80
2021/05/16 00:29:27;;;;;;;1.50;1.10;;;11.10;98.20;;;;;;5024240;28;20468;-81
2021/05/16 00:31:53;;;;;;;1.50;1.10;;;11.20;98.20;;;;;;5006389;28;20493;-80
2021/05/16 00:34:20;;;;;;;1.50;1.10;;;11.20;98.20;;;;;;5019164;28;20945;-81
2021/05/16 00:36:46;;;;;;;1.50;1.10;;;11.20;98.20;;;;;;5012468;28;20522;-81
2021/05/16 00:39:14;;;;;;;1.50;1.10;;;11.20;98.20;;;;;;5022875;28;20503;-82
2021/05/16 00:41:40;;;;;;;1.50;1.10;;;11.20;98.20;;;;;;5011443;28;20491;-82
2021/05/16 00:44:07;;;;;;;1.50;1.10;;;11.30;98.20;;;;;;5023795;28;20467;-82
2021/05/16 00:46:35;;;;;;;1.50;1.10;;;11.20;98.20;;;;;;5009679;28;20914;-81
2021/05/16 00:49:01;;;;;;;1.50;1.10;;;11.30;98.20;;;;;;5020974;28;20464;-80
2021/05/16 00:51:28;;;;;;;1.50;1.10;;;11.30;98.20;;;;;;5008267;28;20851;-83
2021/05/16 00:53:54;;;;;;;1.50;1.00;;;11.30;98.20;;;;;;5024825;28;20849;-79
2021/05/16 00:56:21;;;;;;;1.50;1.10;;;11.30;98.20;;;;;;5009440;28;20510;-81
2021/05/16 00:58:47;;;;;;;1.50;1.00;;;11.30;98.20;;;;;;5024469;28;20495;-82
2021/05/16 01:01:15;;;;;;;1.50;1.10;;;11.30;98.20;;;;;;5009881;28;20897;-83
2021/05/16 01:03:41;;;;;;;1.57;1.20;;;11.30;98.20;;;;;;5017041;28;20920;-81
2021/05/16 01:06:08;;;;;;;1.50;1.10;;;11.30;98.20;;;;;;5008415;28;20541;-82
2021/05/16 01:08:34;;;;;;;1.50;1.00;;;11.30;98.20;;;;;;5020021;28;20492;-81
2021/05/16 01:11:01;;;;;;;1.50;1.10;;;11.20;98.20;;;;;;5005888;28;21005;-80
2021/05/16 01:13:29;;;;;;;1.50;1.00;;;11.20;98.20;;;;;;5022378;28;20523;-81
2021/05/16 01:15:55;;;;;;;1.50;1.10;;;11.10;98.20;;;;;;5002509;28;20468;-82
2021/05/16 01:18:21;;;;;;;1.50;1.10;;;11.10;98.20;;;;;;5022250;28;20905;-81
2021/05/16 01:20:50;;;;;;;1.50;1.10;;;11.00;98.20;;;;;;5004609;28;21007;-81
2021/05/16 01:23:20;;;;;;;1.50;1.10;;;10.90;98.20;;;;;;5027340;28;20456;-80
2021/05/16 01:25:48;;;;;;;1.57;1.20;;;10.90;98.20;;;;;;4999283;28;20461;-80
2021/05/16 01:28:17;;;;;;;1.57;1.10;;;10.90;98.20;;;;;;5023491;28;20809;-81
2021/05/16 01:30:45;;;;;;;1.50;1.10;;;10.80;98.20;;;;;;5014919;28;20480;-80
2021/05/16 01:33:14;;;;;;;1.53;1.10;;;10.80;98.20;;;;;;5001330;28;20822;-79
2021/05/16 01:35:40;;;;;;;1.50;1.10;;;10.70;98.20;;;;;;5010815;28;20516;-81
2021/05/16 01:38:08;;;;;;;1.50;1.20;;;10.70;98.20;;;;;;5016664;28;20479;-80
2021/05/16 01:40:38;;;;;;;1.50;1.10;;;10.70;98.20;;;;;;5014528;28;20456;-81
2021/05/16 01:43:08;;;;;;;1.53;1.10;;;10.60;98.20;;;;;;5006622;28;20862;-79
2021/05/16 01:45:34;;;;;;;1.50;1.10;;;10.60;98.20;;;;;;5012555;28;20465;-81
2021/05/16 01:48:00;;;;;;;1.53;1.20;;;10.50;98.20;;;;;;5013902;28;20484;-79
2021/05/16 01:50:31;;;;;;;1.50;1.10;;;10.50;98.20;;;;;;5014056;28;20495;-81
2021/05/16 01:52:58;;;;;;;1.50;1.10;;;10.50;98.20;;;;;;5008694;28;20523;-81
2021/05/16 01:55:24;;;;;;;1.50;1.10;;;10.50;98.20;;;;;;5013734;28;21364;-80
2021/05/16 01:57:51;;;;;;;1.50;1.10;;;10.50;98.20;;;;;;5011396;28;20538;-81
2021/05/16 02:00:28;;;;;;;1.50;1.10;;;10.40;98.20;;;;;;5014586;28;20522;-81
2021/05/16 02:02:55;;;;;;;1.50;1.13;;;10.40;98.20;;;;;;5009501;28;20874;-80
2021/05/16 02:05:21;;;;;;;1.50;1.10;;;10.40;98.20;;;;;;5011574;28;20460;-82
2021/05/16 02:07:48;;;;;;;1.50;1.10;;;10.30;98.20;;;;;;5020101;28;21299;-81
2021/05/16 02:10:15;;;;;;;1.50;1.10;;;10.30;98.20;;;;;;5012171;28;20871;-82
2021/05/16 02:12:41;;;;;;;1.50;1.10;;;10.30;98.20;;;;;;5012800;28;20479;-81
2021/05/16 02:15:11;;;;;;;1.50;1.10;;;10.30;98.20;;;;;;5013229;28;20472;-81
2021/05/16 02:17:39;;;;;;;1.50;1.10;;;10.30;98.20;;;;;;5004984;28;20472;-80
2021/05/16 02:20:06;;;;;;;1.57;1.20;;;10.30;98.20;;;;;;5012401;28;20519;-79
2021/05/16 02:22:33;;;;;;;1.50;1.10;;;10.20;98.20;;;;;;5013472;28;20586;-81
2021/05/16 02:24:59;;;;;;;1.50;1.10;;;10.20;98.20;;;;;;5016444;28;20471;-79
2021/05/16 02:27:25;;;;;;;1.50;1.10;;;10.20;98.20;;;;;;5014028;28;20610;-80
2021/05/16 02:29:52;;;;;;;1.53;1.20;;;10.20;98.20;;;;;;5014992;28;20464;-80
2021/05/16 02:32:19;;;;;;;1.50;1.10;;;10.20;98.20;;;;;;5009424;28;20490;-78
2021/05/16 02:34:45;;;;;;;1.50;1.10;;;10.10;98.20;;;;;;5012517;28;20483;-83
2021/05/16 02:37:12;;;;;;;1.50;1.10;;;10.10;98.20;;;;;;5009656;28;20915;-81
2021/05/16 02:39:38;;;;;;;1.50;1.10;;;10.00;98.20;;;;;;5011595;28;21126;-80
2021/05/16 02:42:05;;;;;;;1.50;1.03;;;10.00;98.20;;;;;;5013280;28;20950;-79
2021/05/16 02:44:31;;;;;;;1.50;1.10;;;9.90;98.20;;;;;;5016347;28;20882;-83
2021/05/16 02:46:57;;;;;;;1.50;1.13;;;9.90;98.20;;;;;;5007391;28;20484;-81
2021/05/16 02:49:25;;;;;;;1.50;1.10;;;9.90;98.20;;;;;;5015138;28;20479;-80
2021/05/16 02:51:51;;;;;;;1.53;1.10;;;9.80;98.20;;;;;;5010391;28;20483;-80
2021/05/16 02:54:17;;;;;;;1.50;1.20;;;9.80;98.20;;;;;;5018562;28;20456;-80
2021/05/16 02:56:43;;;;;;;1.50;1.10;;;9.70;98.20;;;;;;5008067;28;20479;-81
2021/05/16 02:59:10;;;;;;;1.60;1.20;;;9.70;98.20;;;;;;5017998;28;20509;-82
2021/05/16 03:01:36;;;;;;;1.50;1.20;;;9.70;98.20;;;;;;5008551;28;20479;-81
2021/05/16 03:04:03;;;;;;;1.60;1.20;;;9.60;98.20;;;;;;5022202;28;20468;-81
2021/05/16 03:06:30;;;;;;;1.53;1.10;;;9.60;98.20;;;;;;5007491;28;20483;-81
2021/05/16 03:08:56;;;;;;;1.50;1.10;;;9.50;98.20;;;;;;5021233;28;20853;-82
2021/05/16 03:11:23;;;;;;;1.50;1.10;;;9.50;98.20;;;;;;5011077;28;20482;-81
2021/05/16 03:13:49;;;;;;;1.57;1.20;;;9.50;98.20;;;;;;5025059;28;20466;-81
2021/05/16 03:16:15;;;;;;;1.60;1.30;;;9.50;98.20;;;;;;5008463;28;20474;-84
2021/05/16 03:18:42;;;;;;;1.60;1.30;;;9.50;98.20;;;;;;5017850;28;20712;-82
2021/05/16 03:21:08;;;;;;;1.50;1.17;;;9.40;98.20;;;;;;5011202;28;20479;-80
2021/05/16 03:23:35;;;;;;;1.53;1.20;;;9.40;98.20;;;;;;5019015;28;20456;-84
2021/05/16 03:26:02;;;;;;;1.53;1.20;;;9.40;98.20;;;;;;5006499;28;20929;-83
2021/05/16 03:28:28;;;;;;;1.53;1.20;;;9.30;98.20;;;;;;5028484;28;20464;-84
2021/05/16 03:30:55;;;;;;;1.57;1.10;;;9.30;98.20;;;;;;5006174;28;20650;-84
2021/05/16 03:33:21;;;;;;;1.50;1.10;;;9.20;98.20;;;;;;5021001;28;20480;-81
2021/05/16 03:35:48;;;;;;;1.57;1.20;;;9.20;98.20;;;;;;5004852;28;20460;-82
2021/05/16 03:38:15;;;;;;;1.53;1.10;;;9.20;98.20;;;;;;5026938;28;20471;-83
2021/05/16 03:40:42;;;;;;;1.57;1.20;;;9.20;98.20;;;;;;5013931;28;20476;-81
2021/05/16 03:43:09;;;;;;;1.50;1.20;;;9.20;98.20;;;;;;5009605;28;21105;-84
2021/05/16 03:45:35;;;;;;;1.50;1.10;;;9.10;98.20;;;;;;5012858;28;20472;-83
2021/05/16 03:48:02;;;;;;;1.50;1.10;;;9.10;98.20;;;;;;5003614;28;20520;-84
2021/05/16 03:50:28;;;;;;;1.50;1.20;;;9.10;98.20;;;;;;5016973;28;20584;-84
2021/05/16 03:52:55;;;;;;;1.50;1.10;;;9.10;98.20;;;;;;5014495;28;20515;-81
2021/05/16 03:55:21;;;;;;;1.50;1.10;;;9.10;98.20;;;;;;5014970;28;20460;-82
2021/05/16 03:57:50;;;;;;;1.60;1.30;;;9.10;98.20;;;;;;5011409;28;20476;-82
2021/05/16 04:00:18;;;;;;;1.60;1.27;;;9.10;98.20;;;;;;5013716;28;20967;-80
2021/05/16 04:02:46;;;;;;;1.50;1.10;;;9.00;98.20;;;;;;5016755;28;20483;-81
2021/05/16 04:05:13;;;;;;;1.53;1.20;;;9.00;98.20;;;;;;5014544;28;20503;-80
2021/05/16 04:07:40;;;;;;;1.50;1.10;;;9.00;98.20;;;;;;5013955;28;20513;-79
2021/05/16 04:10:07;;;;;;;1.50;1.10;;;9.00;98.20;;;;;;5013741;28;20853;-81
2021/05/16 04:12:34;;;;;;;1.57;1.30;;;9.10;98.20;;;;;;5013201;28;20804;-81
2021/05/16 04:15:01;;;;;;;1.57;1.10;;;9.10;98.20;;;;;;5014157;28;20901;-80
2021/05/16 04:17:27;;;;;;;1.50;1.20;;;9.10;98.20;;;;;;5007958;28;20978;-81
2021/05/16 04:19:53;;;;;;;1.50;1.20;;;9.10;98.20;;;;;;5017183;28;20535;-80
2021/05/16 04:22:20;;;;;;;1.50;1.30;;;9.10;98.20;;;;;;5010919;28;20490;-79
2021/05/16 04:24:46;;;;;;;1.50;1.10;;;9.10;98.20;;;;;;5015014;28;20974;-80
2021/05/16 04:27:12;;;;;;;1.50;1.10;;;9.10;98.20;;;;;;5005520;28;20697;-79
2021/05/16 04:29:39;;;;;;;1.53;1.20;;;9.10;98.20;;;;;;5015646;28;20472;-81
2021/05/16 04:32:06;;;;;;;1.50;1.20;;;9.10;98.20;;;;;;5011059;28;20491;-81
2021/05/16 04:34:32;;;;;;;1.50;1.10;;;9.20;98.20;;;;;;5017468;28;20575;-81
2021/05/16 04:36:59;;;;;;;1.50;1.20;;;9.20;98.20;;;;;;5007806;28;20476;-81
2021/05/16 04:39:25;;;;;;;1.50;1.20;;;9.20;98.20;;;;;;5018165;28;20555;-80
2021/05/16 04:41:51;;;;;;;1.50;1.10;;;9.30;98.20;;;;;;5010933;28;20566;-80
2021/05/16 04:44:18;;;;;;;1.50;1.10;;;9.40;98.20;;;;;;5019674;28;20468;-82
2021/05/16 04:46:44;;;;;;;1.50;1.10;;;9.60;98.20;;;;;;5002296;28;20948;-80
2021/05/16 04:49:11;;;;;;;1.50;1.10;;;9.70;98.20;;;;;;5006418;28;21070;-81
2021/05/16 04:51:37;;;;;;;1.57;1.20;;;9.90;98.20;;;;;;5006625;28;20487;-81
2021/05/16 04:54:05;;;;;;;1.60;1.20;;;10.00;98.20;;;;;;5018985;28;20470;-79
2021/05/16 04:56:31;;;;;;;1.50;1.10;;;10.20;98.20;;;;;;5005275;28;21188;-81
2021/05/16 04:58:57;;;;;;;1.50;1.10;;;10.30;98.20;;;;;;5014814;28;20467;-82
2021/05/16 05:01:24;;;;;;;1.60;1.20;;;10.50;98.20;;;;;;5007845;28;20561;-82
2021/05/16 05:03:50;;;;;;;3.50;2.50;;;10.60;98.20;;;;;;5014889;28;20456;-81
2021/05/16 05:06:17;;;;;;;1.53;1.10;;;10.70;98.20;;;;;;5004302;28;20556;-82
2021/05/16 05:08:44;;;;;;;1.57;1.20;;;10.90;98.20;;;;;;5012753;28;20475;-81
2021/05/16 05:11:10;;;;;;;1.50;1.00;;;10.90;98.20;;;;;;5004754;28;20995;-81
2021/05/16 05:13:37;;;;;;;1.50;1.10;;;11.00;98.20;;;;;;5019491;28;20522;-81
2021/05/16 05:16:03;;;;;;;1.53;1.10;;;11.00;98.20;;;;;;5004268;28;20815;-80
2021/05/16 05:18:32;;;;;;;1.50;1.10;;;11.10;98.20;;;;;;5013338;28;20554;-80
2021/05/16 05:20:58;;;;;;;1.50;1.10;;;11.10;98.20;;;;;;5005925;28;20556;-79
2021/05/16 05:23:26;;;;;;;1.50;1.10;;;11.10;98.20;;;;;;5023687;28;20547;-80
2021/05/16 05:25:54;;;;;;;1.50;1.10;;;11.10;98.20;;;;;;5007361;28;20464;-81
2021/05/16 05:28:21;;;;;;;1.50;1.00;;;11.20;98.20;;;;;;5021603;28;20463;-82
2021/05/16 05:30:47;;;;;;;1.50;1.10;;;11.30;98.20;;;;;;5005096;28;20487;-82
2021/05/16 05:33:14;;;;;;;1.50;1.00;;;11.40;98.20;;;;;;5022332;28;20559;-81
2021/05/16 05:35:41;;;;;;;1.50;1.10;;;11.60;98.20;;;;;;5014456;28;20563;-83
2021/05/16 05:38:07;;;;;;;1.50;1.10;;;11.60;98.20;;;;;;5016707;28;20626;-81
2021/05/16 05:40:34;;;;;;;1.50;1.00;;;11.70;98.20;;;;;;5014444;28;20460;-82
2021/05/16 05:43:01;;;;;;;1.60;1.10;;;11.80;98.20;;;;;;5021777;28;20486;-82
2021/05/16 05:45:27;;;;;;;1.50;1.07;;;11.80;98.20;;;;;;5015807;28;20484;-82
2021/05/16 05:47:54;;;;;;;1.50;1.00;;;11.90;98.20;;;;;;5019228;28;20491;-81
2021/05/16 05:50:20;;;;;;;1.50;1.00;;;11.90;98.20;;;;;;5015629;28;20546;-81
2021/05/16 05:52:47;;;;;;;1.50;1.10;;;11.90;98.20;;;;;;5012769;28;20582;-80
2021/05/16 05:55:13;;;;;;;1.50;1.00;;;12.00;98.20;;;;;;5014723;28;20465;-80
2021/05/16 05:57:40;;;;;;;1.50;1.00;;;12.00;98.20;;;;;;5014846;28;20527;-78
2021/05/16 06:00:08;;;;;;;1.50;1.10;;;12.10;98.20;;;;;;5014755;28;20518;-83
2021/05/16 06:02:34;;;;;;;1.50;1.00;;;12.20;98.20;;;;;;5010909;28;20487;-83
2021/05/16 06:05:01;;;;;;;1.50;1.00;;;12.30;98.20;;;;;;5017754;28;20742;-80
2021/05/16 06:07:27;;;;;;;1.50;1.00;;;12.30;98.20;;;;;;5009243;28;20485;-80
2021/05/16 06:09:53;;;;;;;1.50;1.00;;;12.40;98.20;;;;;;5013348;28;20492;-78
2021/05/16 06:12:20;;;;;;;1.50;1.00;;;12.40;98.20;;;;;;5010018;28;20598;-82
2021/05/16 06:14:49;;;;;;;1.50;1.00;;;12.40;98.20;;;;;;5015714;28;20475;-82
2021/05/16 06:17:17;;;;;;;1.53;1.10;;;12.30;98.20;;;;;;5006564;28;20483;-80
2021/05/16 06:19:43;;;;;;;1.50;1.00;;;12.30;98.20;;;;;;5014872;28;21033;-82
2021/05/16 06:22:13;;;;;;;1.50;1.00;;;12.30;98.20;;;;;;5008334;28;20493;-83
2021/05/16 06:24:40;;;;;;;1.50;1.00;;;12.30;98.20;;;;;;5016167;28;20539;-82
2021/05/16 06:27:07;;;;;;;1.50;1.10;;;12.30;98.20;;;;;;5009083;28;20583;-80
2021/05/16 06:29:34;;;;;;;1.50;1.03;;;12.20;98.20;;;;;;5019543;28;20471;-81
2021/05/16 06:32:01;;;;;;;1.50;1.00;;;12.20;98.20;;;;;;5007626;28;21095;-80
2021/05/16 06:34:27;;;;;;;1.57;1.10;;;12.10;98.20;;;;;;5011091;28;20826;-81
2021/05/16 06:36:55;;;;;;;1.50;1.03;;;12.10;98.20;;;;;;5006204;28;20495;-80
2021/05/16 06:39:21;;;;;;;1.53;1.10;;;12.00;98.20;;;;;;5012628;28;20460;-78
2021/05/16 06:41:47;;;;;;;1.50;1.00;;;12.00;98.20;;;;;;5006881;28;20946;-79
2021/05/16 06:44:14;;;;;;;1.50;1.00;;;11.90;98.20;;;;;;5016735;28;20469;-78
2021/05/16 06:46:40;;;;;;;1.57;1.10;;;11.80;98.20;;;;;;5001409;28;20542;-82
2021/05/16 06:49:07;;;;;;;1.53;1.00;;;11.80;98.20;;;;;;5015275;28;20871;-81
2021/05/16 06:51:35;;;;;;;1.57;1.10;;;11.80;98.20;;;;;;4999200;28;20487;-81
2021/05/16 06:54:02;;;;;;;1.53;1.10;;;11.80;98.20;;;;;;5014793;28;20468;-79
2021/05/16 06:56:28;;;;;;;1.57;1.00;;;11.80;98.20;;;;;;5005374;28;20521;-81
2021/05/16 06:58:55;;;;;;;1.50;1.00;;;11.80;98.20;;;;;;5019785;28;20472;-78
2021/05/16 07:01:21;;;;;;;1.50;1.00;;;11.80;98.20;;;;;;5004962;28;20491;-79
2021/05/16 07:03:47;;;;;;;1.50;1.10;;;11.90;98.20;;;;;;5018719;28;20955;-78
2021/05/16 07:06:15;;;;;;;1.50;1.10;;;12.00;98.20;;;;;;5005996;28;20479;-78
2021/05/16 07:08:41;;;;;;;1.50;1.10;;;12.00;98.20;;;;;;5020399;28;20468;-78
2021/05/16 07:11:07;;;;;;;1.60;1.10;;;12.10;98.20;;;;;;5004573;28;20522;-78
2021/05/16 07:13:34;;;;;;;1.50;1.00;;;12.10;98.20;;;;;;5017393;28;20480;-76
2021/05/16 07:16:00;;;;;;;1.50;1.00;;;12.20;98.20;;;;;;4999193;28;20514;-78
2021/05/16 07:18:26;;;;;;;1.50;1.00;;;12.20;98.20;;;;;;5022368;28;20538;-80
2021/05/16 07:20:52;;;;;;;1.50;1.00;;;12.20;98.20;;;;;;5001274;28;20484;-79
2021/05/16 07:23:20;;;;;;;1.50;1.00;;;12.20;98.20;;;;;;5017842;28;20471;-79
2021/05/16 07:25:46;;;;;;;1.50;1.00;;;12.30;98.20;;;;;;5005873;28;20487;-78
2021/05/16 07:28:12;;;;;;;1.50;1.00;;;12.30;98.20;;;;;;5023748;28;20469;-77
2021/05/16 07:30:39;;;;;;;1.50;0.90;;;12.40;98.20;;;;;;5010459;28;21093;-80
2021/05/16 07:33:05;;;;;;;1.50;1.00;;;12.50;98.20;;;;;;4997846;28;20566;-80
2021/05/16 07:35:32;;;;;;;1.50;1.00;;;12.60;98.20;;;;;;5010448;28;20471;-79
2021/05/16 07:37:58;;;;;;;1.50;1.00;;;12.60;98.20;;;;;;5012431;28;20483;-79
2021/05/16 07:40:25;;;;;;;1.53;1.10;;;12.70;98.20;;;;;;5011873;28;20472;-77
2021/05/16 07:42:52;;;;;;;1.50;1.00;;;12.70;98.20;;;;;;5015939;28;20509;-78
2021/05/16 07:45:19;;;;;;;1.50;1.10;;;12.80;98.20;;;;;;5008129;28;21026;-80
2021/05/16 07:47:46;;;;;;;1.50;1.00;;;12.80;98.20;;;;;;5011524;28;20533;-77
2021/05/16 07:50:14;;;;;;;1.50;1.10;;;12.80;98.20;;;;;;5009493;28;20460;-80
2021/05/16 07:52:41;;;;;;;1.50;1.20;;;12.80;98.20;;;;;;5009665;28;20577;-78
2021/05/16 07:55:09;;;;;;;1.50;1.00;;;12.90;98.20;;;;;;5008608;28;20514;-79
2021/05/16 07:57:37;;;;;;;1.50;1.00;;;12.90;98.20;;;;;;5011972;28;20574;-78
2021/05/16 08:00:06;;;;;;;1.53;1.00;;;13.00;98.20;;;;;;5011016;28;20547;-79
2021/05/16 08:02:32;;;;;;;1.50;1.00;;;13.10;98.20;;;;;;5015180;28;20914;-80
2021/05/16 08:04:58;;;;;;;1.50;0.93;;;13.20;98.20;;;;;;5012493;28;20475;-79
2021/05/16 08:07:25;;;;;;;1.50;1.00;;;13.30;98.20;;;;;;5008506;28;20928;-77
2021/05/16 08:09:51;;;;;;;1.50;1.00;;;13.40;98.20;;;;;;5015363;28;20463;-80
2021/05/16 08:12:18;;;;;;;1.50;1.00;;;13.50;98.20;;;;;;5008286;28;20475;-79
2021/05/16 08:14:45;;;;;;;1.50;1.00;;;13.60;98.20;;;;;;5010834;28;21037;-79
2021/05/16 08:17:11;;;;;;;1.50;1.00;;;13.80;98.20;;;;;;5007082;28;20505;-80
2021/05/16 08:19:38;;;;;;;1.50;1.00;;;13.90;98.20;;;;;;5010912;28;20523;-80
2021/05/16 08:22:04;;;;;;;1.50;1.00;;;14.00;98.20;;;;;;5003045;28;20484;-79
2021/05/16 08:24:30;;;;;;;1.50;1.00;;;14.00;98.20;;;;;;5010708;28;20471;-80
2021/05/16 08:26:56;;;;;;;1.53;1.00;;;14.00;98.20;;;;;;5010392;28;20487;-78
2021/05/16 08:29:23;;;;;;;1.50;1.00;;;13.90;98.20;;;;;;5015160;28;20726;-78
2021/05/16 08:31:50;;;;;;;1.50;1.00;;;13.70;98.20;;;;;;5001493;28;21014;-78
2021/05/16 08:34:17;;;;;;;1.50;1.00;;;13.60;98.20;;;;;;5015124;28;21153;-78
2021/05/16 08:36:43;;;;;;;1.50;1.00;;;13.50;98.20;;;;;;5006807;28;20511;-79
2021/05/16 08:39:09;;;;;;;1.50;1.00;;;13.40;98.20;;;;;;5016328;28;20551;-78
2021/05/16 08:41:37;;;;;;;1.50;1.00;;;13.40;98.20;;;;;;5004984;28;20500;-79
2021/05/16 08:44:04;;;;;;;1.50;1.00;;;13.40;98.20;;;;;;5017606;28;20475;-78
2021/05/16 08:46:31;;;;;;;1.50;1.00;;;13.50;98.20;;;;;;5000582;28;21122;-79
2021/05/16 08:48:58;;;;;;;1.47;0.90;;;13.60;98.20;;;;;;5019527;28;20938;-79
2021/05/16 08:51:25;;;;;;;1.50;1.00;;;13.70;98.20;;;;;;5007651;28;20483;-79
2021/05/16 08:53:51;;;;;;;1.50;1.00;;;14.00;98.20;;;;;;5020071;28;20464;-79
2021/05/16 08:56:17;;;;;;;1.53;1.10;;;14.20;98.20;;;;;;5007232;28;20580;-78
2021/05/16 08:58:44;;;;;;;1.50;1.00;;;14.50;98.20;;;;;;5017911;28;20464;-79
2021/05/16 09:01:18;;;;;;;1.50;1.00;;;14.80;98.20;;;;;;5003106;28;20483;-78
2021/05/16 09:03:44;;;;;;;1.50;0.90;;;14.90;98.20;;;;;;5025652;28;20468;-80
2021/05/16 09:06:12;;;;;;;1.50;1.00;;;14.90;97.50;;;;;;5008809;28;20470;-79
2021/05/16 09:08:46;;;;;;;1.50;1.00;;;15.00;97.20;;;;;;5026492;28;20479;-79
2021/05/16 09:11:13;;;;;;;1.50;1.00;;;15.20;98.20;;;;;;5006061;28;20478;-78
2021/05/16 09:13:44;;;;;;;1.50;1.00;;;15.60;98.20;;;;;;5016412;28;20993;-79
2021/05/16 09:16:13;;;;;;;1.50;1.00;;;15.80;96.00;;;;;;5006231;28;20490;-80
2021/05/16 09:18:45;;;;;;;1.50;1.00;;;15.90;93.90;;;;;;5017405;28;20742;-79
2021/05/16 09:21:27;;;;;;;1.50;0.90;;;15.90;94.30;;;;;;5004189;28;22097;-80
2021/05/16 09:24:13;;;;;;;1.50;1.00;;;16.00;95.70;;;;;;5008478;28;20871;-79
2021/05/16 09:26:52;;;;;;;1.60;1.00;;;16.10;95.20;;;;;;5002658;28;20483;-80
2021/05/16 09:29:23;;;;;;;1.50;0.90;;;16.20;93.90;;;;;;5016622;28;20654;-80
2021/05/16 09:31:50;;;;;;;1.50;0.90;;;16.30;93.90;;;;;;5005221;28;20618;-78
2021/05/16 09:34:17;;;;;;;1.50;0.93;;;16.20;90.20;;;;;;5015728;28;20468;-79
2021/05/16 09:36:46;;;;;;;1.50;1.00;;;16.10;90.40;;;;;;5006881;28;20537;-82
2021/05/16 09:39:17;;;;;;;1.50;0.90;;;15.80;90.20;;;;;;5013337;28;20460;-80
2021/05/16 09:42:00;;;;;;;1.50;1.00;;;15.60;91.50;;;;;;5009355;28;20556;-83
2021/05/16 09:44:31;;;;;;;1.50;0.90;;;15.50;93.00;;;;;;5012955;28;20835;-82
2021/05/16 09:47:13;;;;;;;1.53;1.00;;;15.60;95.50;;;;;;5011172;28;20486;-83
2021/05/16 09:49:41;;;;;;;1.50;1.00;;;15.70;94.90;;;;;;5010544;28;20470;-81
2021/05/16 09:52:10;;;;;;;1.50;1.00;;;15.80;93.20;;;;;;5007158;28;20522;-80
2021/05/16 09:54:56;;;;;;;1.50;1.00;;;15.80;93.50;;;;;;5006017;28;20468;-80
2021/05/16 09:57:27;;;;;;;1.50;1.00;;;15.80;95.70;;;;;;5003713;28;20998;-78
2021/05/16 09:59:54;;;;;;;1.50;1.00;;;15.70;94.10;;;;;;5010649;28;21081;-78
2021/05/16 10:02:24;;;;;;;1.50;1.00;;;15.80;94.80;;;;;;5002454;28;20488;-79
2021/05/16 10:04:52;;;;;;;1.50;1.00;;;16.20;96.40;;;;;;5006481;28;20468;-78
2021/05/16 10:07:21;;;;;;;1.50;0.90;;;16.60;94.60;;;;;;5001773;28;20487;-80
2021/05/16 10:09:47;;;;;;;1.50;0.90;;;17.10;92.20;;;;;;5012818;28;20514;-81
2021/05/16 10:12:15;;;;;;;1.50;1.00;;;17.60;92.90;;;;;;5001216;28;20553;-80
2021/05/16 10:14:45;;;;;;;1.50;0.90;;;17.90;90.30;;;;;;5008316;28;20468;-81
2021/05/16 10:17:12;;;;;;;1.50;0.90;;;18.20;89.60;;;;;;5003104;28;20479;-82
2021/05/16 10:19:41;;;;;;;1.50;0.90;;;18.40;88.20;;;;;;5014384;28;21610;-79
2021/05/16 10:22:16;;;;;;;1.50;1.00;;;18.70;87.00;;;;;;4996618;28;20509;-83
2021/05/16 10:24:45;;;;;;;1.50;0.90;;;18.90;86.20;;;;;;5009496;28;20468;-80
2021/05/16 10:27:21;;;;;;;1.50;1.00;;;18.80;84.00;;;;;;5008856;28;20487;-84
2021/05/16 10:29:50;;;;;;;1.50;0.90;;;18.60;85.10;;;;;;5006549;28;20493;-82
2021/05/16 10:32:29;;;;;;;1.50;0.90;;;18.50;84.90;;;;;;5004236;28;20954;-84
2021/05/16 10:34:56;;;;;;;1.53;0.90;;;18.40;85.70;;;;;;5007706;28;21027;-83
2021/05/16 10:37:43;;;;;;;1.50;0.90;;;18.50;85.50;;;;;;5007988;28;20835;-83
2021/05/16 10:40:29;;;;;;;1.50;0.97;;;18.50;85.10;;;;;;5008457;28;20464;-82
2021/05/16 10:42:57;;;;;;;1.50;0.90;;;18.60;84.20;;;;;;5008046;28;20482;-84
2021/05/16 10:45:30;;;;;;;1.50;0.90;;;18.50;83.60;;;;;;5004497;28;20472;-82
2021/05/16 10:48:04;;;;;;;1.50;0.93;;;18.30;83.50;;;;;;5013686;28;20491;-83
2021/05/16 10:50:58;;;;;;;1.50;0.90;;;18.40;84.60;;;;;;5006963;28;20468;-82
2021/05/16 10:53:29;;;;;;;1.50;0.93;;;18.50;83.30;;;;;;4995667;28;20484;-83
2021/05/16 10:56:10;;;;;;;1.50;0.90;;;18.70;83.90;;;;;;4994715;28;20502;-84
2021/05/16 10:58:39;;;;;;;1.50;1.00;;;18.90;83.60;;;;;;5011789;28;20492;-82
2021/05/16 11:01:07;;;;;;;1.50;1.00;;;19.20;82.50;;;;;;4994215;28;20915;-84
2021/05/16 11:03:48;;;;;;;1.50;0.90;;;19.40;80.70;;;;;;5015705;28;20472;-84
2021/05/16 11:06:16;;;;;;;1.50;0.97;;;19.50;81.20;;;;;;4999322;28;21432;-83
2021/05/16 11:09:11;;;;;;;1.50;0.90;;;19.60;81.60;;;;;;5014271;28;20852;-84
2021/05/16 11:11:55;;;;;;;1.50;0.90;;;19.60;80.00;;;;;;5005205;28;20487;-83
2021/05/16 11:14:23;;;;;;;3.70;3.00;;;19.60;79.90;;;;;;5015353;28;20472;-86
2021/05/16 11:16:52;;;;;;;1.50;0.90;;;19.60;78.70;;;;;;4999144;28;21149;-83
2021/05/16 11:19:24;;;;;;;1.50;0.90;;;19.50;78.50;;;;;;5008641;28;20498;-84
2021/05/16 11:21:50;;;;;;;1.50;0.90;;;19.50;80.10;;;;;;5009972;28;20491;-84
2021/05/16 11:24:31;;;;;;;1.50;1.00;;;19.70;79.80;;;;;;5019101;28;20503;-84
2021/05/16 11:26:59;;;;;;;1.50;0.93;;;20.00;79.40;;;;;;4998019;28;20552;-82
2021/05/16 11:29:25;;;;;;;1.50;0.90;;;20.20;76.90;;;;;;5000477;28;20555;-83
2021/05/16 11:32:03;;;;;;;1.50;0.90;;;20.40;77.40;;;;;;5008732;28;20493;-83
2021/05/16 11:34:29;;;;;;;1.50;0.90;;;20.60;76.30;;;;;;5015247;28;20570;-84
2021/05/16 11:36:55;;;;;;;1.50;0.90;;;20.70;77.80;;;;;;5009543;28;20494;-85
2021/05/16 11:39:22;;;;;;;1.50;0.90;;;21.00;78.20;;;;;;5015295;28;20476;-83
2021/05/16 11:41:48;;;;;;;1.50;0.90;;;21.20;77.20;;;;;;5004190;28;20491;-84
2021/05/16 11:44:25;;;;;;;1.50;0.90;;;21.10;74.90;;;;;;5014248;28;20494;-84
2021/05/16 11:46:51;;;;;;;1.50;0.90;;;20.80;75.30;;;;;;5000640;28;20490;-83
2021/05/16 11:49:26;;;;;;;1.43;0.90;;;20.50;75.80;;;;;;5016829;28;20475;-83
2021/05/16 11:51:56;;;;;;;1.50;0.90;;;20.40;77.70;;;;;;5006398;28;20487;-83
2021/05/16 11:54:26;;;;;;;1.50;0.90;;;20.40;75.70;;;;;;5009020;28;20489;-84
2021/05/16 11:56:53;;;;;;;1.50;0.90;;;20.40;76.70;;;;;;5002818;28;20510;-84
2021/05/16 11:59:29;;;;;;;1.50;0.90;;;20.10;77.30;;;;;;5008153;28;20682;-84
2021/05/16 12:02:10;;;;;;;1.50;0.90;;;19.80;77.80;;;;;;5002947;28;20491;-84
2021/05/16 12:04:38;;;;;;;1.50;1.00;;;19.80;78.40;;;;;;5010779;28;20468;-85
2021/05/16 12:07:05;;;;;;;1.50;1.00;;;20.10;78.30;;;;;;5005111;28;20805;-80
2021/05/16 12:09:38;;;;;;;1.50;0.90;;;20.60;77.40;;;;;;5008623;28;20476;-83
2021/05/16 12:12:17;;;;;;;1.50;0.87;;;20.80;75.10;;;;;;5004276;28;20483;-84
2021/05/16 12:14:45;;;;;;;1.50;1.00;;;20.80;74.70;;;;;;5008692;28;20556;-82
2021/05/16 12:17:13;;;;;;;1.50;0.90;;;20.70;73.10;;;;;;5005061;28;21120;-83
2021/05/16 12:19:40;;;;;;;1.50;0.90;;;20.40;73.70;;;;;;5006937;28;20487;-83
2021/05/16 12:22:08;;;;;;;1.50;0.90;;;20.20;74.20;;;;;;5000106;28;20504;-81
2021/05/16 12:24:36;;;;;;;1.50;0.90;;;20.00;74.50;;;;;;5013115;28;21117;-83
2021/05/16 12:27:05;;;;;;;1.50;1.00;;;19.70;73.90;;;;;;5007195;28;20486;-83
2021/05/16 12:29:31;;;;;;;1.50;1.00;;;19.50;75.10;;;;;;5006979;28;20498;-83
2021/05/16 12:31:58;;;;;;;1.50;0.90;;;19.50;75.40;;;;;;5006695;28;21000;-83
2021/05/16 12:34:26;;;;;;;1.50;0.97;;;19.50;75.70;;;;;;5009875;28;20468;-82
2021/05/16 12:36:54;;;;;;;1.50;0.90;;;19.50;76.60;;;;;;5008121;28;20879;-83
2021/05/16 12:39:33;;;;;;;1.50;0.90;;;19.50;76.00;;;;;;5014916;28;20977;-83
2021/05/16 12:42:00;;;;;;;1.50;1.00;;;19.30;75.70;;;;;;5004006;28;20537;-84
2021/05/16 12:44:30;;;;;;;2.23;1.43;;;19.10;75.90;;;;;;5011978;28;20514;-86
2021/05/16 12:46:58;;;;;;;1.50;0.90;;;19.00;77.20;;;;;;5004245;28;20488;-83
2021/05/16 12:49:26;;;;;;;1.50;0.90;;;19.00;77.60;;;;;;5015341;28;20860;-82
2021/05/16 12:51:54;;;;;;;1.50;0.97;;;19.20;78.30;;;;;;5005936;28;20526;-83